createdAt,value
2022-10-19T00:04:03.524Z,101315.53
2022-10-19T00:09:14.054Z,101314.69
2022-10-19T00:14:19.772Z,101306.03
2022-10-19T00:19:26.225Z,101303.88
2022-10-19T00:24:31.383Z,101301.31
2022-10-19T00:29:34.965Z,101297.22
2022-10-19T00:34:39.174Z,101299.91
2022-10-19T00:39:44.394Z,101310.06
2022-10-19T00:50:32.208Z,101301.53
2022-10-19T00:55:39.639Z,101299.84
2022-10-19T01:00:43.310Z,101301.47
2022-10-19T01:05:46.998Z,101307.38
2022-10-19T01:11:01.670Z,101307.06
2022-10-19T01:16:12.998Z,101306.72
2022-10-19T01:21:22.097Z,101305.94
2022-10-19T01:26:48.300Z,101306.25
2022-10-19T01:32:01.072Z,101317.72
2022-10-19T01:37:13.884Z,101319.28
2022-10-19T01:42:24.985Z,101315.56
2022-10-19T01:47:35.585Z,101309.19
2022-10-19T01:52:41.563Z,101315.88
2022-10-19T01:57:49.989Z,101319.75
2022-10-19T02:02:58.844Z,101307.28
2022-10-19T02:08:07.108Z,101317.09
2022-10-19T02:13:12.466Z,101317.19
2022-10-19T02:18:24.479Z,101315.72
2022-10-19T02:23:28.094Z,101309.34
2022-10-19T02:28:31.969Z,101313.75
2022-10-19T02:33:38.348Z,101327.94
2022-10-19T02:38:43.552Z,101330.75
2022-10-19T02:43:53.731Z,101333.41
2022-10-19T02:48:59.998Z,101350.00
2022-10-19T02:54:05.618Z,101345.19
2022-10-19T02:59:09.202Z,101359.94
2022-10-19T03:04:14.370Z,101359.59
2022-10-19T03:09:18.015Z,101367.81
2022-10-19T03:14:21.565Z,101370.31
2022-10-19T03:19:27.019Z,101379.50
2022-10-19T03:24:31.928Z,101380.75
2022-10-19T03:29:35.539Z,101374.97
2022-10-19T03:34:40.709Z,101398.19
2022-10-19T03:39:44.236Z,101403.78
2022-10-19T03:44:47.755Z,101407.19
2022-10-19T03:49:52.894Z,101404.84
2022-10-19T03:54:56.780Z,101408.13
2022-10-19T04:00:07.865Z,101408.22
2022-10-19T04:05:16.373Z,101413.13
2022-10-19T04:10:20.011Z,101412.28
2022-10-19T04:15:23.543Z,101410.19
2022-10-19T04:20:28.725Z,101408.66
2022-10-19T04:25:32.344Z,101408.34
2022-10-19T04:30:36.037Z,101410.50
2022-10-19T04:35:41.184Z,101407.22
2022-10-19T04:40:44.706Z,101405.19
2022-10-19T04:45:48.246Z,101416.00
2022-10-19T04:50:55.568Z,101414.50
2022-10-19T04:55:59.116Z,101430.56
2022-10-19T05:01:08.877Z,101419.91
2022-10-19T05:06:15.786Z,101423.88
2022-10-19T05:11:20.006Z,101437.09
2022-10-19T05:16:24.640Z,101428.72
2022-10-19T05:21:31.167Z,101432.59
2022-10-19T05:26:34.682Z,101436.44
2022-10-19T05:31:38.233Z,101429.31
2022-10-19T05:36:43.419Z,101428.38
2022-10-19T05:41:47.891Z,101433.25
2022-10-19T05:46:55.131Z,101429.97
2022-10-19T05:52:00.394Z,101433.19
2022-10-19T05:57:03.957Z,101442.56
2022-10-19T06:02:07.951Z,101444.72
2022-10-19T06:07:13.263Z,101441.31
2022-10-19T06:12:20.442Z,101439.50
2022-10-19T06:17:29.698Z,101433.94
2022-10-19T06:22:34.892Z,101426.97
2022-10-19T06:27:38.689Z,101433.31
2022-10-19T06:32:42.399Z,101430.09
2022-10-19T06:37:47.634Z,101420.63
2022-10-19T06:42:51.204Z,101425.25
2022-10-19T06:47:54.745Z,101427.94
2022-10-19T06:53:00.172Z,101415.09
2022-10-19T06:58:03.865Z,101415.16
2022-10-19T07:03:07.758Z,101407.50
2022-10-19T07:08:12.997Z,101412.00
2022-10-19T07:13:16.615Z,101407.84
2022-10-19T07:18:20.128Z,101401.09
2022-10-19T07:23:25.966Z,101400.34
2022-10-19T07:28:30.631Z,101398.75
2022-10-19T07:33:34.395Z,101399.25
2022-10-19T07:38:39.590Z,101400.25
2022-10-19T07:43:44.101Z,101402.75
2022-10-19T07:48:47.798Z,101403.41
2022-10-19T07:53:54.289Z,101404.16
2022-10-19T07:58:59.485Z,101405.13
2022-10-19T08:09:51.358Z,101397.50
2022-10-19T08:14:52.931Z,101398.41
2022-10-19T08:19:56.430Z,101402.25
2022-10-19T08:25:01.636Z,101393.00
2022-10-19T08:30:05.647Z,101405.31
2022-10-19T08:35:10.759Z,101405.44
2022-10-19T08:40:22.658Z,101396.72
2022-10-19T08:50:46.023Z,101396.09
2022-10-19T08:56:03.702Z,101404.22
2022-10-19T09:01:15.378Z,101402.41
2022-10-19T09:06:24.449Z,101407.78
2022-10-19T09:11:33.420Z,101407.88
2022-10-19T09:16:37.362Z,101421.25
2022-10-19T09:21:47.873Z,101422.28
2022-10-19T09:26:56.299Z,101425.00
2022-10-19T09:32:02.434Z,101426.00
2022-10-19T09:37:06.170Z,101427.19
2022-10-19T09:42:18.733Z,101416.44
2022-10-19T09:47:33.279Z,101416.47
2022-10-19T09:52:40.281Z,101420.28
2022-10-19T09:57:45.191Z,101418.06
2022-10-19T10:02:54.534Z,101414.69
2022-10-19T10:07:58.129Z,101412.19
2022-10-19T10:13:04.026Z,101416.69
2022-10-19T10:18:06.854Z,101411.72
2022-10-19T10:23:25.396Z,101409.88
2022-10-19T10:28:31.423Z,101411.03
2022-10-19T10:33:44.915Z,101417.53
2022-10-19T10:38:54.032Z,101415.03
2022-10-19T10:44:04.426Z,101421.06
2022-10-19T10:49:17.578Z,101418.63
2022-10-19T10:54:23.945Z,101408.00
2022-10-19T10:59:34.736Z,101407.13
2022-10-19T11:04:41.897Z,101396.16
2022-10-19T11:09:51.602Z,101396.97
2022-10-19T11:15:03.522Z,101393.53
2022-10-19T11:20:08.384Z,101392.91
2022-10-19T11:25:36.645Z,101395.31
2022-10-19T11:30:56.227Z,101400.38
2022-10-19T11:36:03.528Z,101396.34
2022-10-19T11:41:18.594Z,101407.28
2022-10-19T11:46:30.199Z,101404.31
2022-10-19T11:51:38.007Z,101409.59
2022-10-19T11:57:03.192Z,101410.94
2022-10-19T12:02:28.063Z,101407.66
2022-10-19T12:07:50.626Z,101409.38
2022-10-19T12:12:58.311Z,101414.78
2022-10-19T12:18:11.123Z,101417.03
2022-10-19T12:23:25.587Z,101416.44
2022-10-19T12:28:31.871Z,101424.25
2022-10-19T12:33:46.528Z,101424.34
2022-10-19T12:39:02.083Z,101425.28
2022-10-19T12:44:21.697Z,101432.19
2022-10-19T12:49:45.182Z,101446.22
2022-10-19T12:54:48.840Z,101440.38
2022-10-19T13:00:05.831Z,101435.94
2022-10-19T13:05:21.918Z,101444.13
2022-10-19T13:10:28.046Z,101450.44
2022-10-19T13:15:52.617Z,101447.72
2022-10-19T13:20:57.909Z,101453.19
2022-10-19T13:26:31.630Z,101460.09
2022-10-19T13:31:35.294Z,101454.19
2022-10-19T13:36:59.460Z,101451.63
2022-10-19T13:42:02.998Z,101457.03
2022-10-19T13:47:39.687Z,101459.97
2022-10-19T13:52:57.625Z,101461.72
2022-10-19T13:58:25.808Z,101465.13
2022-10-19T14:03:39.984Z,101473.25
2022-10-19T14:09:20.613Z,101475.13
2022-10-19T14:14:26.441Z,101483.03
2022-10-19T14:19:32.584Z,101480.56
2022-10-19T14:24:37.790Z,101487.75
2022-10-19T14:29:48.011Z,101486.88
2022-10-19T14:34:52.123Z,101494.75
2022-10-19T14:40:02.781Z,101486.53
2022-10-19T14:45:12.945Z,101492.94
2022-10-19T14:50:16.748Z,101501.88
2022-10-19T14:55:22.632Z,101516.66
2022-10-19T15:05:36.463Z,101520.38
2022-10-19T15:10:44.854Z,101522.22
2022-10-19T15:15:52.222Z,101532.19
2022-10-19T15:21:12.148Z,101529.03
2022-10-19T15:26:28.131Z,101537.75
2022-10-19T15:31:31.665Z,101531.09
2022-10-19T15:36:35.222Z,101531.25
2022-10-19T15:41:40.787Z,101537.22
2022-10-19T15:47:14.493Z,101545.25
2022-10-19T15:52:19.024Z,101549.44
2022-10-19T15:57:33.245Z,101553.09
2022-10-19T16:02:37.272Z,101554.09
2022-10-19T16:07:41.690Z,101563.06
2022-10-19T16:12:47.059Z,101562.59
2022-10-19T16:17:52.773Z,101559.69
2022-10-19T16:22:56.589Z,101560.13
2022-10-19T16:28:01.785Z,101562.66
2022-10-19T16:33:05.418Z,101570.91
2022-10-19T16:38:08.947Z,101571.00
2022-10-19T16:43:14.148Z,101579.03
2022-10-19T16:48:20.806Z,101557.34
2022-10-19T16:53:27.310Z,101564.28
2022-10-19T16:58:32.498Z,101557.97
2022-10-19T17:03:36.141Z,101559.41
2022-10-19T17:09:02.734Z,101559.97
2022-10-19T17:14:06.967Z,101558.34
2022-10-19T17:19:11.681Z,101559.75
2022-10-19T17:24:20.389Z,101556.31
2022-10-19T17:29:26.714Z,101558.84
2022-10-19T17:34:29.615Z,101566.97
2022-10-19T17:39:33.166Z,101562.78
2022-10-19T17:44:38.493Z,101564.97
2022-10-19T17:49:42.122Z,101559.16
2022-10-19T17:55:00.580Z,101553.72
2022-10-19T18:00:14.466Z,101559.47
2022-10-19T18:05:18.129Z,101552.84
2022-10-19T18:10:21.701Z,101545.38
2022-10-19T18:15:26.963Z,101540.06
2022-10-19T18:20:30.502Z,101540.41
2022-10-19T18:25:53.545Z,101536.78
2022-10-19T18:31:05.947Z,101532.72
2022-10-19T18:36:11.442Z,101534.50
2022-10-19T18:41:15.032Z,101538.50
2022-10-19T18:46:21.694Z,101530.09
2022-10-19T18:51:25.470Z,101526.53
2022-10-19T18:56:29.227Z,101515.00
2022-10-19T19:01:37.197Z,101511.59
2022-10-19T19:06:41.078Z,101509.44
2022-10-19T19:11:44.615Z,101504.00
2022-10-19T19:16:49.824Z,101489.81
2022-10-19T19:21:53.345Z,101493.81
2022-10-19T19:26:56.869Z,101480.91
2022-10-19T19:32:02.014Z,101478.81
2022-10-19T19:37:08.885Z,101485.97
2022-10-19T19:42:15.490Z,101467.69
2022-10-19T19:47:20.658Z,101460.19
2022-10-19T19:52:24.186Z,101458.66
2022-10-19T19:57:27.727Z,101445.69
2022-10-19T20:02:32.941Z,101435.63
2022-10-19T20:07:36.846Z,101425.72
2022-10-19T20:12:40.602Z,101418.31
2022-10-19T20:17:46.654Z,101399.03
2022-10-19T20:22:50.663Z,101399.38
2022-10-19T20:27:54.278Z,101391.03
2022-10-19T20:33:00.408Z,101381.00
2022-10-19T20:38:03.981Z,101368.44
2022-10-19T20:43:07.504Z,101358.28
2022-10-19T20:48:12.670Z,101352.94
2022-10-19T20:53:16.176Z,101350.53
2022-10-19T20:58:19.690Z,101340.03
2022-10-19T21:03:24.887Z,101328.41
2022-10-19T21:08:28.445Z,101319.63
2022-10-19T21:13:31.974Z,101305.44
2022-10-19T21:18:38.994Z,101304.69
2022-10-19T21:23:42.678Z,101289.97
2022-10-19T21:28:49.738Z,101279.91
2022-10-19T21:33:55.423Z,101281.31
2022-10-19T21:38:59.414Z,101278.63
2022-10-19T21:44:02.941Z,101265.13
2022-10-19T21:49:08.108Z,101255.75
2022-10-19T21:54:13.724Z,101249.81
2022-10-19T21:59:17.868Z,101245.88
2022-10-19T22:04:22.316Z,101242.94
2022-10-19T22:09:25.856Z,101233.72
2022-10-19T22:14:29.393Z,101236.28
2022-10-19T22:19:34.590Z,101225.97
2022-10-19T22:24:41.068Z,101215.06
2022-10-19T22:29:44.660Z,101210.69
2022-10-19T22:34:50.799Z,101207.13
2022-10-19T22:39:54.311Z,101201.75
2022-10-19T22:44:57.907Z,101200.28
2022-10-19T22:50:03.174Z,101183.53
2022-10-19T22:55:07.341Z,101190.78
2022-10-19T23:00:10.840Z,101175.31
2022-10-19T23:05:16.198Z,101180.03
2022-10-19T23:10:19.874Z,101177.16
2022-10-19T23:15:23.466Z,101163.88
2022-10-19T23:20:28.736Z,101169.13
2022-10-19T23:30:40.710Z,101167.94
2022-10-19T23:35:45.962Z,101150.56
2022-10-19T23:40:49.517Z,101147.75
2022-10-19T23:45:53.032Z,101141.03
2022-10-19T23:51:03.163Z,101131.69
2022-10-19T23:56:08.973Z,101130.31
